NORTHEAST SUFFOLK  -  Frost Advisory Frost Advisory        NORTHWEST SUFFOLK  -  Frost Advisory Frost Advisory        SOUTHEAST SUFFOLK  -  Frost Advisory Frost Advisory        SOUTHWEST SUFFOLK  -  Frost Advisory Frost Advisory      

Active alerts

Northwest Suffolk
  Details for Northwest Suffolk Frost Advisory
Southwest Suffolk
  Details for Southwest Suffolk Frost Advisory
Northeast Suffolk
  Details for Northeast Suffolk Frost Advisory
Southeast Suffolk
  Details for Southeast Suffolk Frost Advisory


WXM80 ListenWXM80 Stop

You find our weather info also at:

UK Metoffice

WeatherCloud

Weather Underground

Northeastern Weather Network

AWEKAS

Citizen Weather Observer Program (CWOP)

HAMweather, WeatherForYou, PWS Weather


Weather Underground History page Text

Daily Summary for October 24, 2016 Units:  English    Metric   Both
« Previous Day
Next Day »
Daily Weekly Monthly Yearly Custom
  High: Low: Average:
Temperature: 62.5 °F 48.7 °F 55.1 °F
Dew Point: 51.6 °F 37.5 °F 45.1 °F
Humidity: 93 % 48 % 70 %
Wind Speed: 13.0 mph 0.0 mph 5.1 mph
Wind Gust: 27.6 mph - -
Wind:- - West
Pressure: 30.09 in 29.74 in -
Precipitation: 0.04 in    
Historical Graphs
 
 
Tabular Data for October 24, 2016
Time Temperature Dew Point Pressure Wind Wind Speed Wind Gust Humidity Rainfall Rate (Hourly)
00:01 55.6 °F 44.8 °F 29.81 in SW 4.1 mph 6.0 mph 67 % 0.00 in
00:06 55.6 °F 44.8 °F 29.81 in SSW 3.2 mph 5.8 mph 67 % 0.00 in
00:11 55.5 °F 44.7 °F 29.81 in SSW 2.9 mph 4.6 mph 67 % 0.00 in
00:13 55.5 °F 44.7 °F 29.81 in WSW 3.6 mph 5.0 mph 67 % 0.00 in
00:18 55.4 °F 45.0 °F 29.81 in SW 2.2 mph 4.6 mph 68 % 0.00 in
00:23 55.3 °F 44.9 °F 29.81 in SW 0.8 mph 3.5 mph 68 % 0.00 in
00:28 55.3 °F 45.3 °F 29.81 in SSW 1.0 mph 4.6 mph 69 % 0.00 in
00:33 55.1 °F 45.5 °F 29.81 in SW 1.6 mph 3.5 mph 70 % 0.00 in
00:38 55.0 °F 45.8 °F 29.80 in SSW 1.5 mph 4.6 mph 71 % 0.00 in
00:43 54.8 °F 45.6 °F 29.80 in SSW 2.5 mph 3.5 mph 71 % 0.00 in
00:48 54.8 °F 45.9 °F 29.80 in SSW 2.7 mph 5.0 mph 72 % 0.00 in
00:53 54.7 °F 45.8 °F 29.80 in SSW 0.9 mph 4.6 mph 72 % 0.00 in
00:58 54.7 °F 45.8 °F 29.80 in SW 0.8 mph 3.5 mph 72 % 0.00 in
01:03 54.7 °F 46.2 °F 29.80 in SW 4.2 mph 6.0 mph 73 % 0.00 in
01:08 54.7 °F 46.2 °F 29.80 in WSW 4.8 mph 7.0 mph 73 % 0.00 in
01:14 54.8 °F 46.3 °F 29.79 in SSW 3.2 mph 6.9 mph 73 % 0.00 in
01:24 55.0 °F 47.2 °F 29.79 in SSW 2.2 mph 5.8 mph 75 % 0.00 in
01:29 55.1 °F 47.3 °F 29.79 in SSW 1.0 mph 3.5 mph 75 % 0.00 in
01:39 55.2 °F 47.8 °F 29.78 in SSW 0.4 mph 3.5 mph 76 % 0.00 in
01:44 55.2 °F 48.1 °F 29.78 in SW 1.8 mph 3.5 mph 77 % 0.00 in
01:49 55.3 °F 48.2 °F 29.77 in WSW 0.5 mph 3.5 mph 77 % 0.00 in
01:54 55.4 °F 48.7 °F 29.76 in SW 0.4 mph 2.0 mph 78 % 0.00 in
01:59 55.4 °F 48.7 °F 29.78 in Calm   1.2 mph 78 % 0.00 in
02:05 55.5 °F 48.8 °F 29.76 in Calm   1.2 mph 78 % 0.00 in
02:10 55.5 °F 48.8 °F 29.78 in SSW 0.1 mph 2.0 mph 78 % 0.00 in
02:15 55.6 °F 49.2 °F 29.79 in WNW 2.2 mph 4.0 mph 79 % 0.00 in
02:20 55.7 °F 50.0 °F 29.80 in NW 0.6 mph 2.3 mph 81 % 0.00 in
02:25 55.7 °F 50.6 °F 29.79 in WNW 1.8 mph 4.6 mph 83 % 0.01 in
02:30 55.6 °F 51.2 °F 29.79 in NW 0.8 mph 3.0 mph 85 % 0.02 in
02:35 55.6 °F 51.5 °F 29.79 in NNW 2.0 mph 5.8 mph 86 % 0.02 in
02:40 55.4 °F 51.6 °F 29.79 in North 1.0 mph 3.5 mph 87 % 0.02 in
02:45 55.3 °F 51.5 °F 29.78 in North 5.0 mph 9.2 mph 87 % 0.02 in
02:50 55.1 °F 51.3 °F 29.77 in NW 1.0 mph 10.0 mph 87 % 0.00 in
02:55 55.1 °F 51.3 °F 29.76 in Calm   2.0 mph 87 % 0.00 in
03:01 55.0 °F 51.2 °F 29.75 in Calm     87 % 0.02 in
03:06 54.9 °F 51.1 °F 29.74 in Calm     87 % 0.02 in
03:11 54.8 °F 51.0 °F 29.75 in Calm   1.0 mph 87 % 0.02 in
03:16 54.7 °F 51.2 °F 29.75 in North 0.8 mph 3.5 mph 88 % 0.02 in
03:21 54.6 °F 51.4 °F 29.75 in NNW 1.9 mph 3.5 mph 89 % 0.03 in
03:26 54.4 °F 50.9 °F 29.76 in WNW 0.2 mph 3.5 mph 88 % 0.01 in
03:31 54.3 °F 51.1 °F 29.76 in NNW 1.0 mph 3.5 mph 89 % 0.01 in
03:36 54.2 °F 51.0 °F 29.76 in WNW 2.9 mph 5.0 mph 89 % 0.01 in
03:41 54.1 °F 50.9 °F 29.78 in NNW 2.7 mph 10.0 mph 89 % 0.01 in
03:46 54.0 °F 50.8 °F 29.78 in NNW 1.6 mph 3.5 mph 89 % 0.01 in
03:51 54.0 °F 50.8 °F 29.78 in West 2.8 mph 4.0 mph 89 % 0.01 in
04:01 53.9 °F 51.0 °F 29.78 in West 2.8 mph 4.6 mph 90 % 0.01 in
04:06 53.9 °F 51.0 °F 29.79 in West 4.4 mph 5.0 mph 90 % 0.01 in
04:11 53.9 °F 51.0 °F 29.79 in WNW 3.1 mph 5.0 mph 90 % 0.01 in
04:17 53.8 °F 50.9 °F 29.79 in NE 1.1 mph 4.0 mph 90 % 0.01 in
04:22 53.7 °F 50.8 °F 29.79 in North 2.5 mph 6.9 mph 90 % 0.00 in
04:27 53.7 °F 50.8 °F 29.79 in WNW 2.2 mph 5.8 mph 90 % 0.00 in
04:32 53.5 °F 50.6 °F 29.79 in NE 4.1 mph 5.8 mph 90 % 0.00 in
04:37 53.4 °F 50.5 °F 29.78 in NW 1.4 mph 2.3 mph 90 % 0.00 in
04:42 53.3 °F 50.4 °F 29.78 in NW 1.3 mph 3.0 mph 90 % 0.00 in
04:47 53.3 °F 50.4 °F 29.78 in SW 1.0 mph 3.5 mph 90 % 0.00 in
04:52 53.2 °F 50.3 °F 29.78 in West 1.4 mph 3.5 mph 90 % 0.00 in
04:57 53.0 °F 50.1 °F 29.78 in WSW 2.2 mph 4.6 mph 90 % 0.00 in
05:02 53.0 °F 50.1 °F 29.77 in WSW 0.6 mph 1.2 mph 90 % 0.00 in
05:08 52.9 °F 50.0 °F 29.77 in Calm   1.2 mph 90 % 0.00 in
05:13 52.8 °F 49.9 °F 29.78 in WSW 1.0 mph 2.3 mph 90 % 0.00 in
05:18 52.7 °F 49.8 °F 29.77 in WSW 1.0 mph 2.3 mph 90 % 0.00 in
05:23 52.6 °F 49.8 °F 29.77 in WSW 1.0 mph 3.0 mph 90 % 0.00 in
05:28 52.6 °F 49.8 °F 29.78 in WSW 0.1 mph 1.2 mph 90 % 0.00 in
05:31 52.5 °F 49.7 °F 29.78 in Calm     90 % 0.00 in
05:36 52.4 °F 49.6 °F 29.78 in Calm   1.2 mph 90 % 0.00 in
05:41 52.3 °F 49.5 °F 29.78 in WSW 0.3 mph 1.2 mph 90 % 0.00 in
05:46 52.3 °F 49.8 °F 29.79 in WNW 1.9 mph 3.5 mph 91 % 0.00 in
05:52 52.2 °F 49.7 °F 29.79 in WSW 0.4 mph 2.3 mph 91 % 0.00 in
05:57 52.1 °F 49.8 °F 29.79 in WSW 0.5 mph 3.5 mph 92 % 0.00 in
06:02 52.0 °F 49.7 °F 29.78 in Calm   1.2 mph 92 % 0.00 in
06:07 51.9 °F 49.6 °F 29.78 in Calm     92 % 0.00 in
06:12 51.9 °F 49.6 °F 29.78 in Calm     92 % 0.00 in
06:17 51.7 °F 49.5 °F 29.78 in WSW 0.2 mph 1.2 mph 92 % 0.00 in
06:22 51.6 °F 49.4 °F 29.78 in WSW 0.9 mph 2.3 mph 92 % 0.00 in
06:27 51.5 °F 49.3 °F 29.79 in WSW 1.4 mph 1.4 mph 92 % 0.00 in
06:32 51.4 °F 49.2 °F 29.80 in WSW 2.0 mph 3.5 mph 92 % 0.00 in
06:37 51.3 °F 49.1 °F 29.80 in WSW 2.5 mph 4.6 mph 92 % 0.00 in
06:43 51.2 °F 49.0 °F 29.80 in SSW 0.9 mph 3.5 mph 92 % 0.01 in
06:48 51.2 °F 49.2 °F 29.81 in NW 2.2 mph 6.9 mph 93 % 0.01 in
06:53 51.2 °F 49.2 °F 29.81 in WNW 1.1 mph 3.5 mph 93 % 0.01 in
06:58 51.2 °F 49.2 °F 29.81 in SW 1.5 mph 3.0 mph 93 % 0.01 in
07:03 51.3 °F 49.3 °F 29.81 in WNW 4.1 mph 4.6 mph 93 % 0.01 in
07:08 51.4 °F 49.4 °F 29.81 in SW 3.1 mph 6.0 mph 93 % 0.01 in
07:13 51.4 °F 49.4 °F 29.82 in SSW 2.4 mph 5.8 mph 93 % 0.01 in
07:18 51.4 °F 49.4 °F 29.82 in West 2.0 mph 3.5 mph 93 % 0.01 in
07:23 51.4 °F 49.4 °F 29.82 in NW 2.6 mph 4.6 mph 93 % 0.01 in
07:33 51.5 °F 49.3 °F 29.82 in West 4.4 mph 4.6 mph 92 % 0.01 in
07:39 51.6 °F 49.4 °F 29.82 in WSW 5.4 mph 5.8 mph 92 % 0.00 in
07:44 51.7 °F 49.2 °F 29.83 in SW 3.2 mph 5.8 mph 91 % 0.00 in
07:59 52.0 °F 49.2 °F 29.85 in West 2.3 mph 4.6 mph 90 % 0.00 in
08:04 52.1 °F 49.3 °F 29.85 in WSW 4.3 mph 9.2 mph 90 % 0.00 in
08:09 52.3 °F 49.5 °F 29.85 in NW 5.4 mph 12.0 mph 90 % 0.00 in
08:14 52.4 °F 49.3 °F 29.85 in West 0.8 mph 10.4 mph 89 % 0.00 in
08:19 52.5 °F 49.4 °F 29.85 in WNW 4.5 mph 8.1 mph 89 % 0.00 in
08:24 52.6 °F 49.1 °F 29.85 in NW 4.1 mph 8.1 mph 88 % 0.00 in
08:30 52.7 °F 49.2 °F 29.85 in WNW 5.5 mph 12.0 mph 88 % 0.00 in
08:35 52.8 °F 49.3 °F 29.86 in WSW 4.1 mph 8.1 mph 88 % 0.00 in
08:40 53.0 °F 49.2 °F 29.86 in SW 6.1 mph 8.1 mph 87 % 0.00 in
08:45 53.0 °F 49.2 °F 29.86 in SW 5.1 mph 9.2 mph 87 % 0.00 in
08:55 53.2 °F 49.4 °F 29.86 in WNW 5.8 mph 6.9 mph 87 % 0.00 in
09:00 53.3 °F 49.5 °F 29.86 in WSW 4.4 mph 10.4 mph 87 % 0.00 in
09:05 53.4 °F 49.6 °F 29.87 in SW 1.0 mph 4.6 mph 87 % 0.00 in
09:10 53.6 °F 49.8 °F 29.87 in West 2.0 mph 12.0 mph 87 % 0.00 in
09:15 53.7 °F 49.9 °F 29.87 in West 2.0 mph 9.0 mph 87 % 0.00 in
09:20 53.9 °F 49.8 °F 29.88 in West 6.0 mph 12.0 mph 86 % 0.00 in
09:25 54.2 °F 49.8 °F 29.87 in WNW 3.3 mph 9.2 mph 85 % 0.00 in
09:26 54.2 °F 49.8 °F 29.88 in WNW 2.9 mph 5.8 mph 85 % 0.00 in
09:31 54.5 °F 50.1 °F 29.87 in WSW 4.7 mph 6.9 mph 85 % 0.00 in
09:36 54.9 °F 50.2 °F 29.87 in West 5.5 mph 10.4 mph 84 % 0.00 in
09:41 55.3 °F 50.5 °F 29.88 in WNW 3.9 mph 5.8 mph 84 % 0.00 in
09:46 55.6 °F 50.2 °F 29.88 in WSW 4.5 mph 10.4 mph 82 % 0.00 in
09:51 55.8 °F 50.4 °F 29.88 in WNW 2.5 mph 5.0 mph 82 % 0.00 in
09:56 56.2 °F 51.1 °F 29.87 in West 2.2 mph 5.0 mph 83 % 0.00 in
10:01 56.5 °F 51.1 °F 29.88 in West 5.0 mph 10.4 mph 82 % 0.00 in
10:06 56.7 °F 50.6 °F 29.87 in WSW 2.6 mph 8.0 mph 80 % 0.00 in
10:12 56.9 °F 51.1 °F 29.87 in SW 3.3 mph 7.0 mph 81 % 0.00 in
10:17 57.2 °F 50.4 °F 29.88 in NW 6.4 mph 9.2 mph 78 % 0.00 in
10:22 57.5 °F 50.7 °F 29.87 in WSW 7.2 mph 11.5 mph 78 % 0.00 in
10:27 57.7 °F 50.2 °F 29.88 in WSW 5.0 mph 9.2 mph 76 % 0.00 in
10:32 57.8 °F 49.9 °F 29.87 in SW 6.9 mph 10.4 mph 75 % 0.00 in
10:33 57.8 °F 49.9 °F 29.87 in NW 6.5 mph 12.7 mph 75 % 0.00 in
10:38 58.0 °F 50.5 °F 29.88 in SSW 6.0 mph 12.0 mph 76 % 0.00 in
10:40 58.1 °F 50.2 °F 29.87 in WNW 6.7 mph 11.5 mph 75 % 0.00 in
10:45 58.2 °F 50.3 °F 29.87 in SW 4.0 mph 7.0 mph 75 % 0.00 in
10:55 58.6 °F 50.0 °F 29.87 in SW 6.9 mph 10.0 mph 73 % 0.00 in
11:01 58.8 °F 49.4 °F 29.88 in NW 6.7 mph 11.5 mph 71 % 0.00 in
11:06 59.1 °F 49.7 °F 29.88 in NNE 8.7 mph 15.0 mph 71 % 0.00 in
11:11 59.5 °F 50.1 °F 29.88 in West 2.7 mph 5.8 mph 71 % 0.00 in
11:16 59.9 °F 49.7 °F 29.88 in West 8.9 mph 13.0 mph 69 % 0.00 in
11:21 60.1 °F 49.1 °F 29.88 in NW 5.8 mph 9.2 mph 67 % 0.00 in
11:26 60.4 °F 50.2 °F 29.87 in West 3.4 mph 12.0 mph 69 % 0.00 in
11:31 60.6 °F 49.2 °F 29.87 in SSW 5.1 mph 10.4 mph 66 % 0.00 in
11:36 60.9 °F 49.1 °F 29.87 in NNW 6.5 mph 10.4 mph 65 % 0.00 in
11:41 61.1 °F 48.8 °F 29.87 in West 7.9 mph 12.7 mph 64 % 0.00 in
11:47 61.2 °F 48.9 °F 29.87 in WNW 8.6 mph 11.5 mph 64 % 0.00 in
11:52 61.3 °F 48.6 °F 29.87 in NW 2.8 mph 15.0 mph 63 % 0.00 in
11:57 61.3 °F 48.2 °F 29.87 in West 5.1 mph 17.3 mph 62 % 0.00 in
11:58 61.3 °F 47.7 °F 29.87 in WNW 8.3 mph 17.3 mph 61 % 0.00 in
12:03 61.2 °F 47.6 °F 29.87 in WNW 8.7 mph 16.1 mph 61 % 0.00 in
12:05 61.2 °F 47.6 °F 29.87 in WNW 8.3 mph 11.5 mph 61 % 0.00 in
12:10 61.3 °F 47.7 °F 29.87 in WNW 9.5 mph 14.0 mph 61 % 0.00 in
12:15 61.5 °F 48.4 °F 29.87 in West 5.7 mph 12.7 mph 62 % 0.00 in
12:20 61.8 °F 49.1 °F 29.87 in West 2.7 mph 8.1 mph 63 % 0.00 in
12:25 61.7 °F 47.7 °F 29.87 in WNW 6.1 mph 13.8 mph 60 % 0.00 in
12:30 61.6 °F 48.4 °F 29.88 in NW 3.8 mph 6.9 mph 62 % 0.00 in
12:35 61.6 °F 48.9 °F 29.87 in WNW 3.5 mph 10.0 mph 63 % 0.00 in
12:40 61.7 °F 48.1 °F 29.87 in WSW 6.2 mph 12.0 mph 61 % 0.00 in
12:45 61.5 °F 47.5 °F 29.87 in SW 6.5 mph 11.0 mph 60 % 0.00 in
12:50 61.1 °F 47.5 °F 29.87 in WNW 5.3 mph 12.0 mph 61 % 0.00 in
12:55 60.7 °F 46.7 °F 29.87 in West 5.0 mph 15.0 mph 60 % 0.00 in
13:00 60.4 °F 46.9 °F 29.87 in WNW 8.0 mph 13.8 mph 61 % 0.00 in
13:04 60.4 °F 46.4 °F 29.87 in WNW 5.3 mph 11.5 mph 60 % 0.00 in
13:09 60.5 °F 46.5 °F 29.87 in NW 5.3 mph 13.0 mph 60 % 0.00 in
13:19 60.5 °F 47.0 °F 29.86 in WSW 7.3 mph 10.4 mph 61 % 0.00 in
13:24 60.6 °F 46.6 °F 29.86 in WNW 7.4 mph 10.4 mph 60 % 0.00 in
13:27 60.8 °F 47.3 °F 29.87 in NW 5.2 mph 13.8 mph 61 % 0.00 in
13:32 61.2 °F 45.8 °F 29.87 in WNW 5.2 mph 11.0 mph 57 % 0.00 in
13:37 61.4 °F 44.6 °F 29.86 in WSW 9.9 mph 17.3 mph 54 % 0.00 in
13:42 61.3 °F 44.5 °F 29.86 in WSW 9.1 mph 21.0 mph 54 % 0.00 in
13:47 61.6 °F 44.3 °F 29.86 in WNW 7.7 mph 13.8 mph 53 % 0.00 in
13:52 61.8 °F 45.0 °F 29.86 in WNW 8.5 mph 18.4 mph 54 % 0.00 in
13:57 61.8 °F 45.0 °F 29.86 in West 9.9 mph 19.6 mph 54 % 0.00 in
14:02 61.5 °F 45.2 °F 29.86 in SW 7.1 mph 19.6 mph 55 % 0.00 in
14:07 61.4 °F 45.6 °F 29.86 in NW 8.0 mph 11.5 mph 56 % 0.00 in
14:12 61.5 °F 46.1 °F 29.86 in NW 5.6 mph 15.0 mph 57 % 0.00 in
14:17 61.8 °F 45.9 °F 29.86 in WNW 0.6 mph 13.8 mph 56 % 0.00 in
14:23 62.0 °F 44.7 °F 29.86 in WSW 8.6 mph 19.6 mph 53 % 0.00 in
14:28 62.1 °F 44.8 °F 29.86 in WNW 6.3 mph 11.5 mph 53 % 0.00 in
14:33 62.2 °F 45.3 °F 29.86 in West 11.7 mph 18.4 mph 54 % 0.00 in
14:38 62.3 °F 44.4 °F 29.86 in WNW 6.5 mph 13.8 mph 52 % 0.00 in
14:42 62.4 °F 45.0 °F 29.86 in WNW 7.4 mph 12.7 mph 53 % 0.00 in
14:47 62.5 °F 44.1 °F 29.86 in WNW 8.3 mph 21.0 mph 51 % 0.00 in
14:52 62.3 °F 42.3 °F 29.86 in NNW 10.2 mph 18.4 mph 48 % 0.00 in
14:57 62.2 °F 43.8 °F 29.86 in SW 5.4 mph 15.0 mph 51 % 0.00 in
15:02 62.3 °F 45.4 °F 29.86 in West 4.2 mph 6.9 mph 54 % 0.00 in
15:07 62.4 °F 45.5 °F 29.87 in WNW 9.5 mph 15.0 mph 54 % 0.00 in
15:12 62.2 °F 44.9 °F 29.87 in WSW 5.8 mph 10.4 mph 53 % 0.00 in
15:17 61.9 °F 44.6 °F 29.87 in WNW 4.3 mph 13.8 mph 53 % 0.00 in
15:22 61.5 °F 44.2 °F 29.87 in WNW 6.9 mph 11.5 mph 53 % 0.00 in
15:27 61.1 °F 43.8 °F 29.87 in WNW 6.5 mph 16.1 mph 53 % 0.00 in
15:33 60.7 °F 43.9 °F 29.88 in NW 8.5 mph 15.0 mph 54 % 0.00 in
15:38 60.3 °F 44.1 °F 29.88 in West 7.7 mph 12.7 mph 55 % 0.00 in
15:43 59.8 °F 44.1 °F 29.88 in NW 2.8 mph 8.1 mph 56 % 0.00 in
15:44 59.7 °F 43.5 °F 29.88 in WNW 5.2 mph 13.8 mph 55 % 0.00 in
15:55 59.2 °F 44.0 °F 29.88 in West 3.7 mph 9.2 mph 57 % 0.00 in
16:00 59.0 °F 42.8 °F 29.88 in WNW 11.4 mph 18.4 mph 55 % 0.00 in
16:05 58.8 °F 43.1 °F 29.89 in West 5.2 mph 10.0 mph 56 % 0.00 in
16:10 58.6 °F 42.9 °F 29.88 in WNW 7.0 mph 17.0 mph 56 % 0.00 in
16:14 58.6 °F 42.5 °F 29.89 in WNW 6.5 mph 12.7 mph 55 % 0.00 in
16:19 58.6 °F 42.9 °F 29.89 in WNW 8.3 mph 17.3 mph 56 % 0.00 in
16:24 58.6 °F 43.4 °F 29.89 in WNW 8.0 mph 16.0 mph 57 % 0.00 in
16:29 58.6 °F 42.9 °F 29.89 in NNW 8.0 mph 13.8 mph 56 % 0.00 in
16:31 58.6 °F 42.9 °F 29.89 in WNW 8.4 mph 19.6 mph 56 % 0.00 in
16:36 58.6 °F 42.5 °F 29.90 in WNW 9.3 mph 16.1 mph 55 % 0.00 in
16:41 58.6 °F 42.9 °F 29.90 in West 4.7 mph 15.0 mph 56 % 0.00 in
16:47 58.5 °F 42.8 °F 29.90 in NW 6.8 mph 14.0 mph 56 % 0.00 in
16:52 58.4 °F 43.7 °F 29.90 in WNW 7.2 mph 11.5 mph 58 % 0.00 in
16:57 58.3 °F 43.1 °F 29.91 in WSW 9.6 mph 24.2 mph 57 % 0.00 in
17:02 58.2 °F 43.0 °F 29.91 in WNW 10.6 mph 16.1 mph 57 % 0.00 in
17:07 58.1 °F 43.4 °F 29.91 in West 11.7 mph 19.6 mph 58 % 0.00 in
17:12 57.9 °F 42.8 °F 29.92 in NNW 7.0 mph 17.3 mph 57 % 0.00 in
17:15 57.8 °F 40.8 °F 29.92 in NW 12.2 mph 20.7 mph 53 % 0.00 in
17:20 57.5 °F 40.5 °F 29.92 in West 11.5 mph 23.0 mph 53 % 0.00 in
17:25 57.3 °F 41.7 °F 29.92 in SW 4.6 mph 11.5 mph 56 % 0.00 in
17:29 57.2 °F 41.6 °F 29.92 in North 7.5 mph 13.8 mph 56 % 0.00 in
17:34 56.9 °F 41.4 °F 29.93 in NNW 6.0 mph 16.1 mph 56 % 0.00 in
17:35 56.9 °F 41.4 °F 29.93 in NNW 6.0 mph 16.1 mph 56 % 0.00 in
17:40 56.7 °F 41.2 °F 29.93 in NW 12.3 mph 21.9 mph 56 % 0.00 in
17:41 56.6 °F 40.1 °F 29.93 in NW 5.6 mph 19.6 mph 54 % 0.00 in
17:46 56.5 °F 41.0 °F 29.93 in WNW 6.8 mph 11.0 mph 56 % 0.00 in
17:51 56.3 °F 41.7 °F 29.94 in NW 7.4 mph 19.6 mph 58 % 0.00 in
17:57 56.2 °F 41.6 °F 29.94 in NW 7.2 mph 11.5 mph 58 % 0.00 in
18:02 55.9 °F 41.8 °F 29.95 in NNW 12.1 mph 20.0 mph 59 % 0.00 in
18:07 55.8 °F 41.2 °F 29.95 in West 6.3 mph 17.3 mph 58 % 0.00 in
18:12 55.6 °F 41.0 °F 29.96 in WNW 11.1 mph 23.0 mph 58 % 0.00 in
18:14 55.6 °F 41.5 °F 29.96 in West 3.5 mph 26.5 mph 59 % 0.00 in
18:19 55.3 °F 39.9 °F 29.96 in North 8.4 mph 20.7 mph 56 % 0.00 in
18:29 54.7 °F 40.2 °F 29.97 in WSW 11.1 mph 21.9 mph 58 % 0.00 in
18:32 54.5 °F 39.6 °F 29.97 in West 9.6 mph 14.0 mph 57 % 0.00 in
18:36 54.4 °F 39.9 °F 29.98 in NNE 12.4 mph 27.6 mph 58 % 0.00 in
18:41 54.1 °F 38.3 °F 29.98 in NNE 11.5 mph 19.6 mph 55 % 0.00 in
18:46 54.0 °F 38.6 °F 29.98 in WNW 11.6 mph 21.0 mph 56 % 0.00 in
18:49 53.9 °F 38.1 °F 29.99 in West 8.8 mph 23.0 mph 55 % 0.00 in
18:51 53.9 °F 38.1 °F 29.98 in WSW 12.1 mph 21.9 mph 55 % 0.00 in
18:56 53.8 °F 38.0 °F 29.99 in NNW 11.5 mph 20.7 mph 55 % 0.00 in
18:58 53.7 °F 38.8 °F 29.98 in West 6.7 mph 19.6 mph 57 % 0.00 in
19:03 53.6 °F 38.7 °F 29.99 in WNW 9.6 mph 19.6 mph 57 % 0.00 in
19:08 53.5 °F 39.5 °F 29.99 in WSW 7.7 mph 11.5 mph 59 % 0.00 in
19:12 53.4 °F 39.0 °F 29.99 in NW 9.5 mph 15.0 mph 58 % 0.00 in
19:17 53.2 °F 38.8 °F 30.00 in WNW 9.8 mph 21.0 mph 58 % 0.00 in
19:22 53.1 °F 38.7 °F 30.01 in NW 6.8 mph 15.0 mph 58 % 0.00 in
19:27 53.0 °F 39.0 °F 30.01 in NW 7.8 mph 20.7 mph 59 % 0.00 in
19:29 53.0 °F 39.0 °F 30.02 in NW 10.2 mph 15.0 mph 59 % 0.00 in
19:34 52.9 °F 39.8 °F 30.01 in West 7.7 mph 12.0 mph 61 % 0.00 in
19:37 52.8 °F 39.7 °F 30.02 in NNW 8.3 mph 12.7 mph 61 % 0.00 in
19:42 52.7 °F 39.2 °F 30.02 in NW 9.3 mph 15.0 mph 60 % 0.00 in
19:47 52.6 °F 38.7 °F 30.02 in NNW 7.6 mph 13.0 mph 59 % 0.00 in
19:52 52.5 °F 39.4 °F 30.02 in WNW 5.5 mph 10.4 mph 61 % 0.00 in
19:57 52.3 °F 38.0 °F 30.02 in WNW 6.5 mph 16.1 mph 58 % 0.00 in
20:02 52.2 °F 38.3 °F 30.02 in NW 13.0 mph 20.7 mph 59 % 0.00 in
20:03 52.2 °F 38.3 °F 30.01 in WSW 11.7 mph 20.7 mph 59 % 0.00 in
20:08 52.2 °F 38.3 °F 30.02 in WNW 7.9 mph 15.0 mph 59 % 0.00 in
20:13 52.1 °F 38.6 °F 30.02 in West 9.1 mph 16.1 mph 60 % 0.00 in
20:16 52.0 °F 38.5 °F 30.02 in NW 5.8 mph 20.7 mph 60 % 0.00 in
20:21 51.9 °F 39.3 °F 30.02 in NW 9.8 mph 17.0 mph 62 % 0.00 in
20:24 51.9 °F 38.9 °F 30.02 in NW 7.9 mph 13.8 mph 61 % 0.00 in
20:29 51.8 °F 38.8 °F 30.03 in NW 6.0 mph 17.3 mph 61 % 0.00 in
20:34 51.6 °F 39.4 °F 30.03 in NNW 8.4 mph 19.6 mph 63 % 0.00 in
20:37 51.6 °F 39.0 °F 30.03 in North 7.5 mph 11.5 mph 62 % 0.00 in
20:42 51.4 °F 39.2 °F 30.03 in West 4.3 mph 10.0 mph 63 % 0.00 in
20:45 51.4 °F 38.8 °F 30.03 in West 7.2 mph 12.7 mph 62 % 0.00 in
20:50 51.3 °F 39.1 °F 30.03 in WNW 5.2 mph 10.4 mph 63 % 0.00 in
20:55 51.2 °F 38.6 °F 30.03 in West 6.7 mph 8.1 mph 62 % 0.00 in
21:00 51.1 °F 38.1 °F 30.03 in WNW 10.7 mph 18.4 mph 61 % 0.00 in
21:03 51.1 °F 38.5 °F 30.04 in West 6.9 mph 15.0 mph 62 % 0.00 in
21:08 51.0 °F 37.6 °F 30.04 in West 8.8 mph 20.7 mph 60 % 0.00 in
21:13 51.0 °F 38.4 °F 30.04 in WNW 6.8 mph 13.8 mph 62 % 0.00 in
21:18 50.9 °F 38.3 °F 30.04 in NW 7.0 mph 15.0 mph 62 % 0.00 in
21:22 50.9 °F 38.3 °F 30.05 in NW 6.6 mph 11.5 mph 62 % 0.00 in
21:27 50.8 °F 38.7 °F 30.05 in NW 6.5 mph 12.7 mph 63 % 0.00 in
21:32 50.7 °F 38.6 °F 30.05 in NNW 6.6 mph 12.0 mph 63 % 0.00 in
21:37 50.6 °F 39.3 °F 30.06 in ENE 5.2 mph 9.2 mph 65 % 0.00 in
21:42 50.6 °F 39.3 °F 30.06 in WNW 3.8 mph 11.5 mph 65 % 0.00 in
21:45 50.6 °F 39.3 °F 30.06 in ESE 6.8 mph 18.4 mph 65 % 0.00 in
21:50 50.5 °F 39.2 °F 30.06 in West 5.9 mph 13.0 mph 65 % 0.00 in
21:54 50.5 °F 38.8 °F 30.06 in WNW 4.4 mph 11.0 mph 64 % 0.00 in
21:59 50.4 °F 38.7 °F 30.06 in ENE 3.5 mph 12.7 mph 64 % 0.00 in
22:04 50.3 °F 39.0 °F 30.07 in West 5.5 mph 12.0 mph 65 % 0.00 in
22:09 50.3 °F 39.0 °F 30.07 in NW 5.5 mph 13.8 mph 65 % 0.00 in
22:14 50.2 °F 38.9 °F 30.08 in NNW 7.5 mph 12.0 mph 65 % 0.00 in
22:19 50.1 °F 38.8 °F 30.08 in NW 6.9 mph 18.4 mph 65 % 0.00 in
22:24 50.0 °F 38.3 °F 30.08 in WNW 4.1 mph 15.0 mph 64 % 0.00 in
22:29 49.9 °F 37.8 °F 30.08 in NW 4.5 mph 11.5 mph 63 % 0.00 in
22:32 49.8 °F 38.1 °F 30.08 in WNW 6.0 mph 11.5 mph 64 % 0.00 in
22:33 49.8 °F 38.1 °F 30.08 in NW 5.1 mph 11.5 mph 64 % 0.00 in
22:38 49.8 °F 38.1 °F 30.08 in WNW 4.1 mph 9.2 mph 64 % 0.00 in
22:43 49.7 °F 38.4 °F 30.08 in NNW 3.2 mph 13.8 mph 65 % 0.00 in
22:44 49.7 °F 38.4 °F 30.08 in WNW 4.2 mph 10.4 mph 65 % 0.00 in
22:49 49.6 °F 38.3 °F 30.08 in WNW 3.9 mph 7.0 mph 65 % 0.00 in
22:54 49.5 °F 38.2 °F 30.08 in NNW 6.1 mph 14.0 mph 65 % 0.00 in
22:55 49.5 °F 37.8 °F 30.08 in West 5.2 mph 13.8 mph 64 % 0.00 in
23:00 49.5 °F 37.8 °F 30.08 in NW 8.2 mph 13.8 mph 64 % 0.00 in
23:04 49.4 °F 37.7 °F 30.08 in SSE 4.1 mph 11.5 mph 64 % 0.00 in
23:09 49.3 °F 37.6 °F 30.08 in NNW 5.7 mph 15.0 mph 64 % 0.00 in
23:12 49.3 °F 37.6 °F 30.08 in WSW 5.2 mph 13.8 mph 64 % 0.00 in
23:17 49.2 °F 37.9 °F 30.08 in West 8.8 mph 11.5 mph 65 % 0.00 in
23:19 49.2 °F 37.5 °F 30.08 in NNW 11.5 mph 16.1 mph 64 % 0.00 in
23:24 49.1 °F 37.8 °F 30.09 in WSW 6.5 mph 11.5 mph 65 % 0.00 in
23:29 49.0 °F 38.1 °F 30.09 in WSW 8.2 mph 17.3 mph 66 % 0.00 in
23:34 49.0 °F 38.1 °F 30.09 in West 7.8 mph 15.0 mph 66 % 0.00 in
23:39 48.9 °F 37.6 °F 30.09 in WNW 3.4 mph 10.4 mph 65 % 0.00 in
23:41 48.9 °F 38.0 °F 30.09 in West 3.0 mph 10.4 mph 66 % 0.00 in
23:46 48.9 °F 38.0 °F 30.09 in WNW 5.4 mph 14.0 mph 66 % 0.00 in
23:47 48.8 °F 37.9 °F 30.09 in NNE 7.7 mph 15.0 mph 66 % 0.00 in
23:48 48.8 °F 37.9 °F 30.09 in NW 3.8 mph 10.0 mph 66 % 0.00 in
23:53 48.8 °F 37.9 °F 30.09 in WNW 3.7 mph 11.5 mph 66 % 0.00 in
23:58 48.7 °F 37.8 °F 30.09 in WNW 4.0 mph 5.8 mph 66 % 0.00 in
Crab Meadow Weather
Compliments of Weather Underground - 3 mb

Script developed by  Jim McMurry - jmcmurry@mwt.net Adapted for the template by  Wim van der Kuil - Leuven-Template.eu

Weather Terms: Waterspout - In general, a tornado occurring over water. Specifically, it refers to a small, relatively weak rotating column of air over water beneath a towering cumulus or cumulonimbus cloud. They occasionally occur over Lake Michigan in late summer with unusually cold air aloft.